»·PEaware :: N413C KSBP-KSBA

N413C :: KSBP-KSBA

FLIGHT INFORMATION

Flight Status: Arrived
Operator: Privately registered:
United States
More flights under this callsign
Pilot: Alec D. (17934)
Aircraft: PIPER PA-28R-201 ARROW
(P28R)
More flights by this aircraft type
Origin: KSBP San Luis Co Regl
United States
Destination: KSBA Santa Barbara Mun
United States
More flights between these airports :: More routes between these airports
Route: CREPE3 MQO V27 GVO
File this flight plan on PilotEdge
Remarks:
Altitude:
(Current/Filed)
7,000ft
Speed:
(Current/Filed)
130kts
Departed: 23-Jul-18 08:32 AM
Arrived: 23-Jul-18 09:10 AM
Distance/Time
Traveled:
63nm/0:38
Distance/Time
To Go:
Arrived

Flight Plot

Page will automatically refresh every two minutes.


Map Options




Map Legend


Flown Route
Filed Route
Departure Airport
Arrival Airport
Navaid (VOR, NDB)
Fix

Horizontal Profiles

Position Reports

Time Latitude Longitude Heading Altitude Ground
Speed
23-Jul-18 08:07 35.238717 -120.646904 215 214ft 0kts
23-Jul-18 08:08 35.238717 -120.646904 204 214ft 0kts
23-Jul-18 08:09 35.238717 -120.646904 193 214ft 0kts
23-Jul-18 08:10 35.238717 -120.646904 197 214ft 0kts
23-Jul-18 08:11 35.238717 -120.646904 189 214ft 0kts
23-Jul-18 08:12 35.238717 -120.646904 190 214ft 0kts
23-Jul-18 08:13 35.238716 -120.646904 191 214ft 0kts
23-Jul-18 08:14 35.238713 -120.646904 188 214ft 0kts
23-Jul-18 08:15 35.238709 -120.646905 188 214ft 0kts
23-Jul-18 08:16 35.238705 -120.646906 189 214ft 0kts
23-Jul-18 08:17 35.238703 -120.646906 187 214ft 0kts
23-Jul-18 08:18 35.238701 -120.646907 187 214ft 0kts
23-Jul-18 08:19 35.238698 -120.646907 188 214ft 0kts
23-Jul-18 08:20 35.238696 -120.646908 188 214ft 0kts
23-Jul-18 08:21 35.238693 -120.646908 187 214ft 0kts
23-Jul-18 08:22 35.238691 -120.646909 184 214ft 0kts
23-Jul-18 08:23 35.238688 -120.646909 183 214ft 0kts
23-Jul-18 08:24 35.238859 -120.645973 108 214ft 11kts
23-Jul-18 08:25 35.238245 -120.641139 87 214ft 17kts
23-Jul-18 08:26 35.235715 -120.636164 124 214ft 17kts
23-Jul-18 08:27 35.233400 -120.631968 135 214ft 12kts
23-Jul-18 08:28 35.233081 -120.632058 277 214ft 0kts
23-Jul-18 08:29 35.233083 -120.632076 278 214ft 0kts
23-Jul-18 08:30 35.233084 -120.632081 281 214ft 0kts
23-Jul-18 08:31 35.233085 -120.632086 284 214ft 0kts
23-Jul-18 08:32 35.233199 -120.632548 263 214ft 0kts
23-Jul-18 08:33 35.233678 -120.634553 304 214ft 51kts
23-Jul-18 08:34 35.246684 -120.659155 300 1039ft 92kts
23-Jul-18 08:35 35.259659 -120.687773 299 2227ft 92kts
23-Jul-18 08:36 35.273176 -120.714792 306 3059ft 93kts
23-Jul-18 08:37 35.287556 -120.741230 303 3984ft 95kts
23-Jul-18 08:38 35.297507 -120.770813 256 4781ft 103kts
23-Jul-18 08:39 35.270443 -120.779886 150 5414ft 116kts
23-Jul-18 08:40 35.245483 -120.755831 138 6091ft 114kts
23-Jul-18 08:41 35.221455 -120.730514 139 6731ft 114kts
23-Jul-18 08:42 35.195105 -120.704623 143 7038ft 131kts
23-Jul-18 08:43 35.164669 -120.676266 140 6994ft 137kts
23-Jul-18 08:44 35.134645 -120.646309 140 7042ft 142kts
23-Jul-18 08:45 35.103512 -120.616122 144 6969ft 142kts
23-Jul-18 08:46 35.070782 -120.589266 143 6993ft 142kts
23-Jul-18 08:47 35.039581 -120.560691 141 6976ft 137kts
23-Jul-18 08:48 35.009187 -120.532440 142 6971ft 137kts
23-Jul-18 08:49 34.978735 -120.504121 141 6973ft 137kts
23-Jul-18 08:50 34.948577 -120.476096 141 6984ft 137kts
23-Jul-18 08:51 34.917935 -120.447665 142 7010ft 138kts
23-Jul-18 08:52 34.887264 -120.419185 142 7026ft 139kts
23-Jul-18 08:53 34.856565 -120.390745 142 7032ft 139kts
23-Jul-18 08:54 34.825707 -120.362190 142 7026ft 139kts
23-Jul-18 08:55 34.795005 -120.333778 141 7032ft 138kts
23-Jul-18 08:56 34.764303 -120.305383 142 7017ft 139kts
23-Jul-18 08:57 34.733278 -120.276774 142 7023ft 139kts
23-Jul-18 08:58 34.702514 -120.248038 140 7004ft 139kts
23-Jul-18 08:59 34.671525 -120.219774 142 7010ft 139kts
23-Jul-18 09:00 34.640128 -120.192178 144 7033ft 138kts
23-Jul-18 09:01 34.609652 -120.163356 143 7026ft 139kts
23-Jul-18 09:02 34.582254 -120.129712 119 6809ft 148kts
23-Jul-18 09:03 34.556908 -120.088799 137 6200ft 156kts
23-Jul-18 09:04 34.513649 -120.074777 167 5153ft 165kts
23-Jul-18 09:05 34.469134 -120.062500 143 4305ft 161kts
23-Jul-18 09:06 34.458015 -120.014804 89 3910ft 149kts
23-Jul-18 09:07 34.456802 -119.963889 90 2868ft 152kts
23-Jul-18 09:08 34.454620 -119.913146 92 1719ft 147kts
23-Jul-18 09:09 34.452721 -119.866497 97 883ft 111kts
23-Jul-18 09:10 34.440411 -119.843161 166 240ft 74kts
23-Jul-18 09:11 34.425100 -119.838612 166 12ft 27kts
23-Jul-18 09:12 34.423647 -119.836491 144 12ft 11kts
23-Jul-18 09:13 34.423667 -119.835813 72 12ft 0kts

Navigation Log

Ident Type
1. KSBP Airport
2. CREPE Fix
3. SOJSU Fix
4. MQO Navaid
5. AVILA Fix
6. NINOO Fix
7. FABEG Fix
8. ORCUT Fix
9. AFOXY Fix
10. GVO Navaid
11. KSBA Airport